createdAt,value
2023-04-02T00:02:20.791Z,9.10
2023-04-02T00:05:13.793Z,9.00
2023-04-02T00:07:42.630Z,9.03
2023-04-02T00:10:36.979Z,9.18
2023-04-02T00:13:18.187Z,8.77
2023-04-02T00:15:47.893Z,9.11
2023-04-02T00:18:20.661Z,8.90
2023-04-02T00:20:56.416Z,8.71
2023-04-02T00:23:24.555Z,8.79
2023-04-02T00:25:52.641Z,8.77
2023-04-02T00:28:22.839Z,8.77
2023-04-02T00:30:56.280Z,8.58
2023-04-02T00:33:26.927Z,8.64
2023-04-02T00:35:55.066Z,8.63
2023-04-02T00:38:30.368Z,8.79
2023-04-02T00:41:06.778Z,8.82
2023-04-02T00:43:38.362Z,8.79
2023-04-02T00:46:12.380Z,8.73
2023-04-02T00:49:08.179Z,8.76
2023-04-02T00:51:38.860Z,8.72
2023-04-02T00:54:10.291Z,8.75
2023-04-02T00:56:41.400Z,8.76
2023-04-02T00:59:32.651Z,8.72
2023-04-02T01:02:15.980Z,8.67
2023-04-02T01:04:55.741Z,8.69
2023-04-02T01:07:48.429Z,8.67
2023-04-02T01:10:34.433Z,8.59
2023-04-02T01:13:17.284Z,8.76
2023-04-02T01:15:51.512Z,8.61
2023-04-02T01:18:37.914Z,8.69
2023-04-02T01:21:05.614Z,8.71
2023-04-02T01:23:39.782Z,8.66
2023-04-02T01:26:10.333Z,8.69
2023-04-02T01:29:04.383Z,8.72
2023-04-02T01:31:33.172Z,8.56
2023-04-02T01:34:03.221Z,8.64
2023-04-02T01:36:34.111Z,8.81
2023-04-02T01:39:33.628Z,8.82
2023-04-02T01:42:21.103Z,8.84
2023-04-02T01:44:51.285Z,8.79
2023-04-02T01:47:23.487Z,8.81
2023-04-02T01:49:54.873Z,8.72
2023-04-02T01:52:35.692Z,8.78
2023-04-02T01:55:04.746Z,8.81
2023-04-02T01:57:32.531Z,8.81
2023-04-02T02:00:01.693Z,8.89
2023-04-02T02:02:30.948Z,8.81
2023-04-02T02:04:59.180Z,8.97
2023-04-02T02:07:27.639Z,9.22
2023-04-02T02:09:55.771Z,9.32
2023-04-02T02:12:23.875Z,9.33
2023-04-02T02:14:51.788Z,9.29
2023-04-02T02:17:27.826Z,9.28
2023-04-02T02:19:57.162Z,9.26
2023-04-02T02:22:33.625Z,9.37
2023-04-02T02:25:04.483Z,9.45
2023-04-02T02:27:43.269Z,9.57
2023-04-02T02:30:13.332Z,9.58
2023-04-02T02:32:48.414Z,9.57
2023-04-02T02:35:42.050Z,9.49
2023-04-02T02:38:50.724Z,9.61
2023-04-02T02:41:33.432Z,9.49
2023-04-02T02:44:06.735Z,9.72
2023-04-02T02:46:37.837Z,9.68
2023-04-02T02:49:07.442Z,9.67
2023-04-02T02:51:42.628Z,9.75
2023-04-02T02:54:11.303Z,9.58
2023-04-02T02:56:43.588Z,9.52
2023-04-02T02:59:12.244Z,9.20
2023-04-02T03:01:41.251Z,9.21
2023-04-02T03:04:09.162Z,9.14
2023-04-02T03:06:37.601Z,9.15
2023-04-02T03:09:20.623Z,9.26
2023-04-02T03:12:02.569Z,9.05
2023-04-02T03:14:30.412Z,9.07
2023-04-02T03:17:06.244Z,9.15
2023-04-02T03:19:40.108Z,9.49
2023-04-02T03:22:14.280Z,9.35
2023-04-02T03:24:56.500Z,9.21
2023-04-02T03:27:29.748Z,9.02
2023-04-02T03:30:35.304Z,8.99
2023-04-02T03:33:09.555Z,9.03
2023-04-02T03:35:55.202Z,9.09
2023-04-02T03:38:35.795Z,8.93
2023-04-02T03:41:10.085Z,8.87
2023-04-02T03:43:46.106Z,9.04
2023-04-02T03:46:24.269Z,8.91
2023-04-02T03:48:59.154Z,8.89
2023-04-02T03:51:32.563Z,8.78
2023-04-02T03:54:04.690Z,8.72
2023-04-02T03:56:36.141Z,8.99
2023-04-02T03:59:14.402Z,9.09
2023-04-02T04:01:52.894Z,9.01
2023-04-02T04:04:22.364Z,9.09
2023-04-02T04:06:51.161Z,9.05
2023-04-02T04:09:27.145Z,8.75
2023-04-02T04:12:34.140Z,8.83
2023-04-02T04:15:08.472Z,8.68
2023-04-02T04:17:55.159Z,8.80
2023-04-02T04:20:40.565Z,8.56
2023-04-02T04:23:39.556Z,8.97
2023-04-02T04:26:19.289Z,8.75
2023-04-02T04:29:05.958Z,8.87
2023-04-02T04:31:52.900Z,8.88
2023-04-02T04:38:29.747Z,8.71
2023-04-02T04:41:12.035Z,8.63
2023-04-02T04:43:46.962Z,8.59
2023-04-02T04:46:22.972Z,8.71
2023-04-02T04:49:02.622Z,8.72
2023-04-02T04:51:39.275Z,8.82
2023-04-02T04:54:12.710Z,8.92
2023-04-02T04:56:48.197Z,8.76
2023-04-02T04:59:43.422Z,8.84
2023-04-02T05:02:34.733Z,8.64
2023-04-02T05:05:03.738Z,8.68
2023-04-02T05:07:36.729Z,8.87
2023-04-02T05:10:15.610Z,8.95
2023-04-02T05:12:53.448Z,9.02
2023-04-02T05:15:35.073Z,9.08
2023-04-02T05:18:16.581Z,9.05
2023-04-02T05:20:49.695Z,9.11
2023-04-02T05:23:23.262Z,9.15
2023-04-02T05:26:02.352Z,9.23
2023-04-02T05:28:58.751Z,9.15
2023-04-02T05:31:37.959Z,9.30
2023-04-02T05:34:06.458Z,9.18
2023-04-02T05:36:34.770Z,9.41
2023-04-02T05:39:02.529Z,9.56
2023-04-02T05:41:43.780Z,9.49
2023-04-02T05:44:26.408Z,9.60
2023-04-02T05:47:05.518Z,9.67
2023-04-02T05:49:41.899Z,9.67
2023-04-02T05:52:32.362Z,9.57
2023-04-02T05:55:12.837Z,9.69
2023-04-02T05:58:17.687Z,9.73
2023-04-02T06:00:51.530Z,9.82
2023-04-02T06:03:25.457Z,9.92
2023-04-02T06:05:58.080Z,9.85
2023-04-02T06:08:39.611Z,9.96
2023-04-02T06:11:11.456Z,10.19
2023-04-02T06:13:40.758Z,10.14
2023-04-02T06:16:13.316Z,10.16
2023-04-02T06:18:41.941Z,10.26
2023-04-02T06:21:12.564Z,10.27
2023-04-02T06:23:46.020Z,10.35
2023-04-02T06:26:35.356Z,10.52
2023-04-02T06:29:14.107Z,10.52
2023-04-02T06:31:49.477Z,10.62
2023-04-02T06:34:22.761Z,10.76
2023-04-02T06:36:55.890Z,11.02
2023-04-02T06:39:25.733Z,11.06
2023-04-02T06:42:11.051Z,11.22
2023-04-02T06:44:41.660Z,11.31
2023-04-02T06:47:26.759Z,11.27
2023-04-02T06:50:13.580Z,11.41
2023-04-02T06:52:57.733Z,11.44
2023-04-02T06:55:44.061Z,11.53
2023-04-02T06:58:14.205Z,11.72
2023-04-02T07:00:44.557Z,11.72
2023-04-02T07:03:28.691Z,11.80
2023-04-02T07:05:57.417Z,11.77
2023-04-02T07:08:25.700Z,11.85
2023-04-02T07:10:53.523Z,11.99
2023-04-02T07:13:23.206Z,11.99
2023-04-02T07:15:53.427Z,12.12
2023-04-02T07:18:31.122Z,12.37
2023-04-02T07:21:00.123Z,12.43
2023-04-02T07:23:28.648Z,12.58
2023-04-02T07:25:56.891Z,12.63
2023-04-02T07:28:26.078Z,12.49
2023-04-02T07:30:54.584Z,12.63
2023-04-02T07:33:25.126Z,12.49
2023-04-02T07:35:54.631Z,12.70
2023-04-02T07:38:22.571Z,13.03
2023-04-02T07:40:50.273Z,13.25
2023-04-02T07:43:18.307Z,13.24
2023-04-02T07:45:45.970Z,13.42
2023-04-02T07:48:14.209Z,13.52
2023-04-02T07:50:42.291Z,13.71
2023-04-02T07:53:28.788Z,13.98
2023-04-02T07:55:58.625Z,13.99
2023-04-02T07:58:26.259Z,14.02
2023-04-02T08:00:54.085Z,14.30
2023-04-02T08:03:22.260Z,14.47
2023-04-02T08:05:54.130Z,14.65
2023-04-02T08:08:23.099Z,14.76
2023-04-02T08:10:51.186Z,14.90
2023-04-02T08:13:22.091Z,14.85
2023-04-02T08:15:50.297Z,14.89
2023-04-02T08:18:22.505Z,15.09
2023-04-02T08:20:50.762Z,15.35
2023-04-02T08:23:18.869Z,15.54
2023-04-02T08:25:48.671Z,15.65
2023-04-02T08:28:25.870Z,15.69
2023-04-02T08:30:53.705Z,15.60
2023-04-02T08:33:21.796Z,15.54
2023-04-02T08:35:52.405Z,15.31
2023-04-02T08:38:21.769Z,15.73
2023-04-02T08:40:54.399Z,15.86
2023-04-02T08:43:31.079Z,15.71
2023-04-02T08:45:59.242Z,15.53
2023-04-02T08:48:27.231Z,15.50
2023-04-02T08:50:55.043Z,15.64
2023-04-02T08:56:59.256Z,15.50
2023-04-02T09:03:15.061Z,15.60
2023-04-02T09:16:41.962Z,16.06
2023-04-02T09:19:26.773Z,16.00
2023-04-02T09:22:16.534Z,16.20
2023-04-02T09:24:45.703Z,15.99
2023-04-02T09:27:19.124Z,16.21
2023-04-02T09:29:50.147Z,16.23
2023-04-02T09:32:29.876Z,16.43
2023-04-02T09:35:22.372Z,16.26
2023-04-02T09:38:29.026Z,16.61
2023-04-02T09:41:01.899Z,16.14
2023-04-02T09:43:39.096Z,16.01
2023-04-02T09:46:13.272Z,16.30
2023-04-02T09:48:45.398Z,16.41
2023-04-02T09:51:20.741Z,16.63
2023-04-02T09:53:51.371Z,16.62
2023-04-02T09:56:24.017Z,16.82
2023-04-02T09:59:13.909Z,16.91
2023-04-02T10:01:45.149Z,17.48
2023-04-02T10:04:36.985Z,17.16
2023-04-02T10:07:06.090Z,17.61
2023-04-02T10:09:58.227Z,17.64
2023-04-02T10:12:27.206Z,17.46
2023-04-02T10:14:56.285Z,17.86
2023-04-02T10:17:32.819Z,18.24
2023-04-02T10:20:20.943Z,18.19
2023-04-02T10:22:48.688Z,17.86
2023-04-02T10:25:18.044Z,18.03
2023-04-02T10:28:05.973Z,18.03
2023-04-02T10:31:03.610Z,18.22
2023-04-02T10:33:36.290Z,17.95
2023-04-02T10:36:10.933Z,18.12
2023-04-02T10:38:45.119Z,18.41
2023-04-02T10:41:34.171Z,18.95
2023-04-02T10:44:28.356Z,18.69
2023-04-02T10:47:02.361Z,19.13
2023-04-02T10:49:49.020Z,19.10
2023-04-02T10:52:41.505Z,18.74
2023-04-02T10:55:18.839Z,18.92
2023-04-02T10:57:47.246Z,18.73
2023-04-02T11:00:20.180Z,19.36
2023-04-02T11:03:00.351Z,18.88
2023-04-02T11:06:04.413Z,18.13
2023-04-02T11:08:57.751Z,18.13
2023-04-02T11:11:32.208Z,18.52
2023-04-02T11:14:26.313Z,18.65
2023-04-02T11:17:18.149Z,18.64
2023-04-02T11:19:47.335Z,18.94
2023-04-02T11:22:18.290Z,18.83
2023-04-02T11:24:48.077Z,18.77
2023-04-02T11:27:35.867Z,18.96
2023-04-02T11:30:15.683Z,18.60
2023-04-02T11:36:32.886Z,18.65
2023-04-02T11:39:14.718Z,19.28
2023-04-02T11:42:24.013Z,19.97
2023-04-02T11:44:53.214Z,19.58
2023-04-02T11:47:25.606Z,19.24
2023-04-02T11:49:56.989Z,19.55
2023-04-02T11:52:26.839Z,19.62
2023-04-02T11:54:58.666Z,20.44
2023-04-02T11:57:55.426Z,20.04
2023-04-02T12:00:32.842Z,20.13
2023-04-02T12:03:47.967Z,20.28
2023-04-02T12:06:31.186Z,20.48
2023-04-02T12:09:18.291Z,20.62
2023-04-02T12:11:46.471Z,20.33
2023-04-02T12:14:32.974Z,20.39
2023-04-02T12:17:01.256Z,20.22
2023-04-02T12:19:30.586Z,19.81
2023-04-02T12:22:00.731Z,19.56
2023-04-02T12:24:29.319Z,19.70
2023-04-02T12:27:16.369Z,19.61
2023-04-02T12:29:44.453Z,20.62
2023-04-02T12:32:24.536Z,20.46
2023-04-02T12:34:56.365Z,19.98
2023-04-02T12:37:31.754Z,20.92
2023-04-02T12:40:02.555Z,21.49
2023-04-02T12:42:32.347Z,21.37
2023-04-02T12:45:01.023Z,21.74
2023-04-02T12:47:33.858Z,21.04
2023-04-02T12:50:02.442Z,20.66
2023-04-02T12:52:40.750Z,19.50
2023-04-02T12:55:19.563Z,20.18
2023-04-02T12:57:47.487Z,20.37
2023-04-02T13:03:37.429Z,20.93
2023-04-02T13:06:21.859Z,20.23
2023-04-02T13:10:24.328Z,20.08
2023-04-02T13:12:41.310Z,19.79
2023-04-02T13:15:21.587Z,21.05
2023-04-02T13:18:12.167Z,20.44
2023-04-02T13:20:41.364Z,19.56
2023-04-02T13:23:27.495Z,18.75
2023-04-02T13:26:22.600Z,18.36
2023-04-02T13:29:15.034Z,18.72
2023-04-02T13:31:42.769Z,19.29
2023-04-02T13:34:11.896Z,19.39
2023-04-02T13:36:39.591Z,19.41
2023-04-02T13:39:07.916Z,19.28
2023-04-02T13:41:44.250Z,20.16
2023-04-02T13:44:23.174Z,20.59
2023-04-02T13:46:52.461Z,20.65
2023-04-02T13:49:20.993Z,21.49
2023-04-02T13:52:00.848Z,20.88
2023-04-02T13:54:55.953Z,21.24
2023-04-02T13:57:23.920Z,21.19
2023-04-02T13:59:52.056Z,21.35
2023-04-02T14:02:22.321Z,21.49
2023-04-02T14:04:55.689Z,22.02
2023-04-02T14:07:45.358Z,21.37
2023-04-02T14:10:30.484Z,20.90
2023-04-02T14:13:10.307Z,20.97
2023-04-02T14:15:57.350Z,20.29
2023-04-02T14:18:35.468Z,20.03
2023-04-02T14:21:43.150Z,20.37
2023-04-02T14:26:12.558Z,20.83
2023-04-02T14:28:07.377Z,21.55
2023-04-02T14:30:49.200Z,20.63
2023-04-02T14:33:30.945Z,20.53
2023-04-02T14:36:11.121Z,20.43
2023-04-02T14:42:10.021Z,20.03
2023-04-02T14:44:45.680Z,20.41
2023-04-02T14:47:25.384Z,20.62
2023-04-02T14:49:58.252Z,20.71
2023-04-02T14:52:28.921Z,20.31
2023-04-02T14:55:02.710Z,20.24
2023-04-02T14:57:40.072Z,19.01
2023-04-02T15:00:21.900Z,17.34
2023-04-02T15:03:13.696Z,16.38
2023-04-02T15:05:50.438Z,16.02
2023-04-02T15:08:25.160Z,15.41
2023-04-02T15:11:04.918Z,14.89
2023-04-02T15:13:41.377Z,14.72
2023-04-02T15:16:15.777Z,14.88
2023-04-02T15:18:43.696Z,15.15
2023-04-02T15:21:20.868Z,14.92
2023-04-02T15:24:02.282Z,14.77
2023-04-02T15:27:21.899Z,14.48
2023-04-02T15:30:13.443Z,14.49
2023-04-02T15:32:43.277Z,14.51
2023-04-02T15:35:32.690Z,14.00
2023-04-02T15:38:33.981Z,14.00
2023-04-02T15:41:04.541Z,14.07
2023-04-02T15:43:39.482Z,13.89
2023-04-02T15:46:25.641Z,13.77
2023-04-02T15:49:05.529Z,13.74
2023-04-02T15:51:57.786Z,13.69
2023-04-02T15:54:51.136Z,14.00
2023-04-02T15:57:35.553Z,13.81
2023-04-02T16:00:31.193Z,13.87
2023-04-02T16:03:27.378Z,13.70
2023-04-02T16:06:19.817Z,13.61
2023-04-02T16:09:07.046Z,13.57
2023-04-02T16:11:35.059Z,13.60
2023-04-02T16:14:16.000Z,13.53
2023-04-02T16:16:45.200Z,13.42
2023-04-02T16:19:30.508Z,13.47
2023-04-02T16:22:04.835Z,13.63
2023-04-02T16:24:32.946Z,13.36
2023-04-02T16:27:12.726Z,13.30
2023-04-02T16:30:01.863Z,13.39
2023-04-02T16:32:39.661Z,13.30
2023-04-02T16:35:43.882Z,13.55
2023-04-02T16:38:32.708Z,13.28
2023-04-02T16:41:09.121Z,13.31
2023-04-02T16:44:04.644Z,13.42
2023-04-02T16:46:44.939Z,13.56
2023-04-02T16:49:37.120Z,13.38
2023-04-02T16:52:11.682Z,13.14
2023-04-02T16:55:41.401Z,13.12
2023-04-02T16:58:18.814Z,13.05
2023-04-02T17:00:53.544Z,13.33
2023-04-02T17:03:40.262Z,13.21
2023-04-02T17:06:16.378Z,13.16
2023-04-02T17:08:53.288Z,13.14
2023-04-02T17:11:24.811Z,13.14
2023-04-02T17:13:58.439Z,12.95
2023-04-02T17:16:34.679Z,13.06
2023-04-02T17:19:09.561Z,13.15
2023-04-02T17:21:40.242Z,13.02
2023-04-02T17:24:14.327Z,13.03
2023-04-02T17:26:42.047Z,12.98
2023-04-02T17:29:29.590Z,12.88
2023-04-02T17:32:01.416Z,12.98
2023-04-02T17:34:30.239Z,13.07
2023-04-02T17:37:13.446Z,13.21
2023-04-02T17:40:03.419Z,13.10
2023-04-02T17:42:34.900Z,12.72
2023-04-02T17:45:51.103Z,12.74
2023-04-02T17:48:43.878Z,12.80
2023-04-02T17:51:26.864Z,12.90
2023-04-02T17:54:15.908Z,12.72
2023-04-02T17:57:04.733Z,12.64
2023-04-02T17:59:33.400Z,12.40
2023-04-02T18:02:44.747Z,12.44
2023-04-02T18:05:32.396Z,12.55
2023-04-02T18:08:18.511Z,12.48
2023-04-02T18:11:08.895Z,12.40
2023-04-02T18:13:41.955Z,12.35
2023-04-02T18:16:43.894Z,12.27
2023-04-02T18:19:52.834Z,12.30
2023-04-02T18:22:28.591Z,12.11
2023-04-02T18:25:15.311Z,12.03
2023-04-02T18:27:49.224Z,12.02
2023-04-02T18:30:41.089Z,11.77
2023-04-02T18:33:13.371Z,11.71
2023-04-02T18:36:02.316Z,11.58
2023-04-02T18:38:46.287Z,11.63
2023-04-02T18:41:32.423Z,11.68
2023-04-02T18:44:06.178Z,11.61
2023-04-02T18:46:42.003Z,11.54
2023-04-02T18:49:22.852Z,11.33
2023-04-02T18:51:58.458Z,11.27
2023-04-02T18:54:42.954Z,11.27
2023-04-02T18:57:30.459Z,11.12
2023-04-02T19:00:05.253Z,11.10
2023-04-02T19:02:43.895Z,11.19
2023-04-02T19:05:35.499Z,11.19
2023-04-02T19:08:29.430Z,11.07
2023-04-02T19:11:00.868Z,10.82
2023-04-02T19:13:29.178Z,10.94
2023-04-02T19:16:10.256Z,10.76
2023-04-02T19:19:06.438Z,10.82
2023-04-02T19:21:50.868Z,10.97
2023-04-02T19:24:38.481Z,11.08
2023-04-02T19:27:12.613Z,10.74
2023-04-02T19:29:59.024Z,10.94
2023-04-02T19:33:07.984Z,11.07
2023-04-02T19:35:42.175Z,10.99
2023-04-02T19:38:47.738Z,10.97
2023-04-02T19:41:36.769Z,11.20
2023-04-02T19:44:09.780Z,11.22
2023-04-02T19:46:40.291Z,11.29
2023-04-02T19:49:32.637Z,11.28
2023-04-02T19:52:01.053Z,11.42
2023-04-02T19:54:29.337Z,11.21
2023-04-02T19:57:05.263Z,11.30
2023-04-02T19:59:50.589Z,11.03
2023-04-02T20:02:18.939Z,11.13
2023-04-02T20:04:47.848Z,11.14
2023-04-02T20:07:16.408Z,11.12
2023-04-02T20:09:47.505Z,10.97
2023-04-02T20:12:16.479Z,11.03
2023-04-02T20:14:44.341Z,11.05
2023-04-02T20:17:12.443Z,10.98
2023-04-02T20:19:40.430Z,11.17
2023-04-02T20:22:08.430Z,10.93
2023-04-02T20:24:36.239Z,11.16
2023-04-02T20:27:04.403Z,10.72
2023-04-02T20:29:32.375Z,10.72
2023-04-02T20:32:00.228Z,10.85
2023-04-02T20:34:28.810Z,10.75
2023-04-02T20:36:56.719Z,10.54
2023-04-02T20:39:24.507Z,10.71
2023-04-02T20:41:52.877Z,10.45
2023-04-02T20:44:20.501Z,10.42
2023-04-02T20:46:48.152Z,10.70
2023-04-02T20:49:16.128Z,10.39
2023-04-02T20:51:43.959Z,10.54
2023-04-02T20:54:11.652Z,10.49
2023-04-02T20:56:39.741Z,10.44
2023-04-02T20:59:07.416Z,10.21
2023-04-02T21:01:36.096Z,10.29
2023-04-02T21:04:04.649Z,10.29
2023-04-02T21:06:35.652Z,10.07
2023-04-02T21:09:07.809Z,10.28
2023-04-02T21:11:36.981Z,10.25
2023-04-02T21:14:05.025Z,10.12
2023-04-02T21:16:33.128Z,10.07
2023-04-02T21:19:04.716Z,10.18
2023-04-02T21:21:34.241Z,10.30
2023-04-02T21:24:05.082Z,10.30
2023-04-02T21:26:35.168Z,10.15
2023-04-02T21:29:03.867Z,10.11
2023-04-02T21:31:37.041Z,9.99
2023-04-02T21:34:05.756Z,10.26
2023-04-02T21:36:36.063Z,9.89
2023-04-02T21:39:06.508Z,10.17
2023-04-02T21:41:36.600Z,10.16
2023-04-02T21:44:07.797Z,10.14
2023-04-02T21:46:36.684Z,10.15
2023-04-02T21:49:06.024Z,9.86
2023-04-02T21:51:34.519Z,10.18
2023-04-02T21:54:02.747Z,10.00
2023-04-02T21:56:41.567Z,9.99
2023-04-02T21:59:10.706Z,10.01
2023-04-02T22:01:41.608Z,9.97
2023-04-02T22:04:10.790Z,9.75
2023-04-02T22:06:40.284Z,9.32
2023-04-02T22:09:11.343Z,9.12
2023-04-02T22:11:40.710Z,9.15
2023-04-02T22:14:08.655Z,9.13
2023-04-02T22:16:37.075Z,9.05
2023-04-02T22:19:08.605Z,8.95
2023-04-02T22:21:37.873Z,8.81
2023-04-02T22:24:08.089Z,8.60
2023-04-02T22:26:36.154Z,8.76
2023-04-02T22:29:04.840Z,8.91
2023-04-02T22:31:33.589Z,8.79
2023-04-02T22:34:02.842Z,8.75
2023-04-02T22:36:31.083Z,8.83
2023-04-02T22:38:59.890Z,8.75
2023-04-02T22:41:28.974Z,8.61
2023-04-02T22:43:57.906Z,8.79
2023-04-02T22:46:26.843Z,8.75
2023-04-02T22:48:55.021Z,8.44
2023-04-02T22:51:24.258Z,8.55
2023-04-02T22:53:54.084Z,8.58
2023-04-02T22:56:24.599Z,8.43
2023-04-02T22:58:52.525Z,8.45
2023-04-02T23:01:27.344Z,8.47
2023-04-02T23:03:55.741Z,8.60
2023-04-02T23:06:24.270Z,8.56
2023-04-02T23:08:52.637Z,8.51
2023-04-02T23:11:23.296Z,8.58
2023-04-02T23:13:52.881Z,8.45
2023-04-02T23:16:21.000Z,8.57
2023-04-02T23:18:48.992Z,8.54
2023-04-02T23:21:19.168Z,8.48
2023-04-02T23:23:48.099Z,8.43
2023-04-02T23:26:19.525Z,8.55
2023-04-02T23:28:47.523Z,8.44
2023-04-02T23:31:18.449Z,8.52
2023-04-02T23:33:46.080Z,8.43
2023-04-02T23:36:18.559Z,8.40
2023-04-02T23:38:46.576Z,8.40
2023-04-02T23:41:15.766Z,8.56
2023-04-02T23:43:43.896Z,8.64
2023-04-02T23:46:11.675Z,8.56
2023-04-02T23:48:39.765Z,8.47
2023-04-02T23:51:07.532Z,8.21
2023-04-02T23:53:35.704Z,8.31
2023-04-02T23:56:03.734Z,8.37
2023-04-02T23:58:31.711Z,8.11
